Time;durP1;ratioP1;P1;durP2;ratioP2;P2;SDS_P1;SDS_P2;PMS_P1;PMS_P2;Temp;Humidity;BMP_temperature;BMP_pressure;BME280_temperature;BME280_humidity;BME280_pressure;Samples;Min_cycle;Max_cycle;Signal;HPM_P1;HPM_P2
2022/12/31 00:01:12;;;;;;;1.77;1.30;;;11.20;97.30;;;;;;4990086;28;20425;-83
2022/12/31 00:03:38;;;;;;;0.90;0.80;;;11.20;97.30;;;;;;4984806;28;20936;-83
2022/12/31 00:06:25;;;;;;;0.90;0.80;;;11.20;97.30;;;;;;4973836;28;20528;-84
2022/12/31 00:08:52;;;;;;;0.90;0.80;;;11.20;97.30;;;;;;4974325;28;20480;-83
2022/12/31 00:11:18;;;;;;;1.23;1.13;;;11.20;97.30;;;;;;4960975;28;20418;-84
2022/12/31 00:13:45;;;;;;;0.90;0.80;;;11.20;97.30;;;;;;4973287;28;20584;-86
2022/12/31 00:18:44;;;;;;;1.00;0.90;;;11.20;97.30;;;;;;4987696;28;20504;-85
2022/12/31 00:21:10;;;;;;;0.90;0.80;;;11.30;97.30;;;;;;4992742;28;20413;-86
2022/12/31 00:23:36;;;;;;;0.80;0.70;;;11.30;97.30;;;;;;4992247;28;20417;-85
2022/12/31 00:26:10;;;;;;;1.03;0.90;;;11.20;97.30;;;;;;4996279;28;20444;-87
2022/12/31 00:28:37;;;;;;;0.90;0.80;;;11.20;97.30;;;;;;4959301;28;21231;-86
2022/12/31 00:31:09;;;;;;;0.90;0.80;;;11.20;97.30;;;;;;4971576;28;20418;-86
2022/12/31 00:33:35;;;;;;;1.10;1.00;;;11.30;97.30;;;;;;4959357;28;20426;-84
2022/12/31 00:36:13;;;;;;;1.00;0.90;;;11.30;97.30;;;;;;4972169;28;20505;-85
2022/12/31 00:38:40;;;;;;;1.20;1.10;;;11.30;97.30;;;;;;4973286;28;20202;-87
2022/12/31 00:41:06;;;;;;;0.80;0.70;;;11.30;97.30;;;;;;4972176;28;20513;-86
2022/12/31 00:43:32;;;;;;;1.63;1.00;;;11.30;97.30;;;;;;4971821;28;20406;-88
2022/12/31 00:45:58;;;;;;;0.90;0.80;;;11.30;97.30;;;;;;4973199;28;20441;-89
2022/12/31 00:48:24;;;;;;;0.90;0.80;;;11.30;97.30;;;;;;4971375;28;20476;-86
2022/12/31 00:50:50;;;;;;;0.90;0.80;;;11.30;97.30;;;;;;4971779;28;20213;-85
2022/12/31 00:53:15;;;;;;;1.10;1.00;;;11.30;97.30;;;;;;4973352;28;20174;-86
2022/12/31 00:55:41;;;;;;;1.00;0.90;;;11.30;97.30;;;;;;4971980;28;20409;-88
2022/12/31 00:58:06;;;;;;;0.90;0.80;;;11.30;97.30;;;;;;4971887;28;20210;-86
2022/12/31 01:00:32;;;;;;;0.90;0.80;;;11.30;97.30;;;;;;4972437;28;20181;-87
2022/12/31 01:02:57;;;;;;;1.10;1.00;;;11.30;97.30;;;;;;4978843;28;20185;-91
2022/12/31 01:05:23;;;;;;;1.10;1.00;;;11.30;97.30;;;;;;4994935;28;20217;-92
2022/12/31 01:07:48;;;;;;;7.73;1.30;;;11.30;97.30;;;;;;4989962;28;20210;-86
2022/12/31 01:11:17;;;;;;;1.23;1.13;;;11.30;97.30;;;;;;4972610;28;20341;-88
2022/12/31 01:12:59;;;;;;;0.90;0.80;;;11.20;97.30;;;;;;4972591;28;20214;-88
2022/12/31 01:15:25;;;;;;;1.00;0.90;;;11.20;97.30;;;;;;4971484;28;20963;-89
2022/12/31 01:17:50;;;;;;;1.00;0.90;;;11.20;97.30;;;;;;4969934;28;20385;-88
2022/12/31 01:20:17;;;;;;;1.40;1.30;;;11.20;97.30;;;;;;4971551;28;20554;-87
2022/12/31 01:22:42;;;;;;;0.77;0.73;;;11.20;97.30;;;;;;4971062;28;20201;-87
2022/12/31 01:25:08;;;;;;;0.90;0.80;;;11.30;97.30;;;;;;4971196;28;20961;-86
2022/12/31 01:27:33;;;;;;;0.90;0.80;;;11.30;97.30;;;;;;4971042;28;20202;-87
2022/12/31 01:29:59;;;;;;;0.93;0.83;;;11.40;97.30;;;;;;4971444;28;20368;-87
2022/12/31 01:32:24;;;;;;;1.10;1.00;;;11.40;97.30;;;;;;4970556;28;20177;-87
2022/12/31 01:34:49;;;;;;;0.90;0.80;;;11.40;97.30;;;;;;4971171;28;20186;-87
2022/12/31 01:37:15;;;;;;;1.00;0.90;;;11.40;97.30;;;;;;4971041;28;20426;-87
2022/12/31 01:39:40;;;;;;;1.00;0.90;;;11.40;97.30;;;;;;4970707;28;20297;-86
2022/12/31 01:42:10;;;;;;;0.90;0.80;;;11.40;97.30;;;;;;4971435;28;20562;-88
2022/12/31 01:44:38;;;;;;;0.90;0.80;;;11.40;97.30;;;;;;4959580;28;20187;-86
2022/12/31 01:47:11;;;;;;;0.90;0.80;;;11.40;97.30;;;;;;4985254;28;20538;-86
2022/12/31 01:49:44;;;;;;;2.50;1.57;;;11.40;97.30;;;;;;4962433;28;20934;-88
2022/12/31 01:52:12;;;;;;;0.90;0.80;;;11.50;97.30;;;;;;4971145;28;20437;-86
2022/12/31 01:54:43;;;;;;;1.00;0.90;;;11.50;97.30;;;;;;4970574;28;20944;-86
2022/12/31 01:57:09;;;;;;;0.90;0.80;;;11.50;97.30;;;;;;4970656;28;20505;-85
2022/12/31 01:59:35;;;;;;;0.70;0.70;;;11.50;97.30;;;;;;4970921;28;20993;-87
2022/12/31 02:02:01;;;;;;;0.90;0.80;;;11.50;97.30;;;;;;4970965;28;20481;-86
2022/12/31 02:04:27;;;;;;;0.90;0.80;;;11.50;97.30;;;;;;4970692;28;20206;-86
2022/12/31 02:06:57;;;;;;;1.10;0.87;;;11.50;97.30;;;;;;4966239;28;20635;-85
2022/12/31 02:09:23;;;;;;;0.90;0.80;;;11.50;97.30;;;;;;4970679;28;20493;-84
2022/12/31 02:11:49;;;;;;;0.90;0.80;;;11.50;97.30;;;;;;4969787;28;20429;-88
2022/12/31 02:14:19;;;;;;;0.90;0.80;;;11.50;97.30;;;;;;4961671;28;20549;-87
2022/12/31 02:17:09;;;;;;;1.07;0.97;;;11.50;97.30;;;;;;4958774;28;20465;-87
2022/12/31 02:20:12;;;;;;;0.87;0.77;;;11.50;97.30;;;;;;4957622;28;20516;-86
2022/12/31 02:22:58;;;;;;;1.10;1.00;;;11.50;97.30;;;;;;4970448;28;20425;-87
2022/12/31 02:25:31;;;;;;;0.83;0.77;;;11.50;97.30;;;;;;4970998;28;20422;-86
2022/12/31 02:28:35;;;;;;;1.10;1.00;;;11.60;97.30;;;;;;4970268;28;20520;-85
2022/12/31 02:31:17;;;;;;;0.90;0.80;;;11.60;97.30;;;;;;4971506;28;20422;-86
2022/12/31 02:33:55;;;;;;;0.90;0.80;;;11.60;97.30;;;;;;4970622;28;20521;-87
2022/12/31 02:36:25;;;;;;;1.00;0.90;;;11.60;97.30;;;;;;4970486;28;20449;-85
2022/12/31 02:38:52;;;;;;;0.90;0.80;;;11.60;97.30;;;;;;4970038;28;20556;-87
2022/12/31 02:44:28;;;;;;;1.00;0.90;;;11.70;97.30;;;;;;4961009;28;20494;-86
2022/12/31 02:47:03;;;;;;;1.37;1.30;;;11.70;97.30;;;;;;4971669;28;20442;-85
2022/12/31 02:49:46;;;;;;;1.10;1.00;;;11.70;97.30;;;;;;4967244;28;20468;-88
2022/12/31 02:52:26;;;;;;;1.00;0.90;;;11.80;97.30;;;;;;4960037;28;20440;-86
2022/12/31 02:55:16;;;;;;;1.27;1.20;;;11.80;97.30;;;;;;4970366;28;20434;-86
2022/12/31 02:58:05;;;;;;;0.90;0.80;;;11.80;97.30;;;;;;4972233;28;20449;-87
2022/12/31 03:03:20;;;;;;;0.90;0.80;;;11.80;97.30;;;;;;4975866;28;20465;-86
2022/12/31 03:05:48;;;;;;;0.90;0.80;;;11.70;97.30;;;;;;4963507;28;20501;-87
2022/12/31 03:08:22;;;;;;;0.90;0.80;;;11.80;97.30;;;;;;4972349;28;20473;-86
2022/12/31 03:10:47;;;;;;;1.10;1.00;;;11.80;97.30;;;;;;4975221;28;20808;-86
2022/12/31 03:13:13;;;;;;;1.00;0.90;;;11.80;97.30;;;;;;4973346;28;20487;-86
2022/12/31 03:15:38;;;;;;;0.70;0.70;;;11.80;97.30;;;;;;4973492;28;20649;-87
2022/12/31 03:18:07;;;;;;;0.83;0.73;;;11.90;97.30;;;;;;4974512;28;20785;-83
2022/12/31 03:23:37;;;;;;;1.00;0.90;;;12.10;97.30;;;;;;4969218;28;20664;-81
2022/12/31 03:26:09;;;;;;;1.00;0.90;;;12.20;97.30;;;;;;4978731;28;20537;-84
2022/12/31 03:28:35;;;;;;;1.20;1.10;;;12.30;97.30;;;;;;4979324;28;20642;-81
2022/12/31 03:31:01;;;;;;;1.00;0.90;;;12.30;97.30;;;;;;4979083;28;20432;-83
2022/12/31 03:33:33;;;;;;;0.90;0.80;;;12.30;97.30;;;;;;4979439;28;20773;-85
2022/12/31 03:36:01;;;;;;;2.10;1.13;;;12.40;97.30;;;;;;4980699;28;20456;-91
2022/12/31 03:38:26;;;;;;;0.90;0.80;;;12.40;97.30;;;;;;4967800;28;20807;-83
2022/12/31 03:40:52;;;;;;;0.70;0.70;;;12.50;97.30;;;;;;4980710;28;20437;-81
2022/12/31 03:43:18;;;;;;;1.00;0.90;;;12.50;97.30;;;;;;4980234;28;20246;-88
2022/12/31 03:45:47;;;;;;;0.80;0.70;;;12.50;97.30;;;;;;4980952;28;20273;-86
2022/12/31 03:48:13;;;;;;;1.00;0.90;;;12.60;97.30;;;;;;4989478;28;20529;-85
2022/12/31 03:50:38;;;;;;;0.90;0.80;;;12.60;97.30;;;;;;4990174;28;20433;-88
2022/12/31 03:53:04;;;;;;;0.80;0.70;;;12.60;97.30;;;;;;4988860;28;20586;-82
2022/12/31 03:55:30;;;;;;;0.90;0.80;;;12.60;97.30;;;;;;4975944;28;20241;-85
2022/12/31 03:57:56;;;;;;;1.00;0.90;;;12.60;97.30;;;;;;4987442;28;20453;-86
2022/12/31 04:00:21;;;;;;;1.00;0.90;;;12.70;97.30;;;;;;4977085;28;20206;-82
2022/12/31 04:02:47;;;;;;;0.90;0.80;;;12.70;97.30;;;;;;4976101;28;20174;-83
2022/12/31 04:05:14;;;;;;;1.30;1.10;;;12.80;97.30;;;;;;4971930;28;20470;-84
2022/12/31 04:07:40;;;;;;;0.90;0.80;;;12.80;97.30;;;;;;4970763;28;20199;-83
2022/12/31 04:10:07;;;;;;;1.00;0.90;;;12.90;97.30;;;;;;4976401;28;20418;-83
2022/12/31 04:12:33;;;;;;;0.90;0.80;;;12.90;97.30;;;;;;4977729;28;20414;-84
2022/12/31 04:14:58;;;;;;;0.90;0.80;;;12.90;97.30;;;;;;4977480;28;20973;-84
2022/12/31 04:17:24;;;;;;;1.03;1.03;;;12.90;97.30;;;;;;4977479;28;20233;-85
2022/12/31 04:19:50;;;;;;;0.90;0.80;;;12.90;97.30;;;;;;4976754;28;20225;-89
2022/12/31 04:22:15;;;;;;;0.90;0.80;;;12.90;97.30;;;;;;4977584;28;20418;-83
2022/12/31 04:24:42;;;;;;;0.90;0.80;;;12.90;97.30;;;;;;4971674;28;20303;-81
2022/12/31 04:27:07;;;;;;;0.90;0.80;;;12.90;97.30;;;;;;4970567;28;20286;-85
2022/12/31 04:29:34;;;;;;;1.00;0.90;;;12.90;97.30;;;;;;4978696;28;20445;-86
2022/12/31 04:31:59;;;;;;;1.00;0.90;;;13.00;97.30;;;;;;4971121;28;20661;-85
2022/12/31 04:34:25;;;;;;;1.10;1.00;;;13.00;97.30;;;;;;4968615;28;20434;-86
2022/12/31 04:36:50;;;;;;;0.97;0.87;;;13.00;97.30;;;;;;4964482;28;20650;-88
2022/12/31 04:39:16;;;;;;;0.93;0.83;;;13.00;97.30;;;;;;4972607;28;20268;-87
2022/12/31 04:41:41;;;;;;;1.00;0.90;;;13.10;97.30;;;;;;4972137;28;20175;-85
2022/12/31 04:44:07;;;;;;;0.90;0.80;;;13.10;97.30;;;;;;4972123;28;20178;-88
2022/12/31 04:46:33;;;;;;;1.00;0.90;;;13.10;97.30;;;;;;4972935;28;20197;-87
2022/12/31 04:48:59;;;;;;;1.00;0.90;;;13.10;97.30;;;;;;4978836;28;20266;-87
2022/12/31 04:51:26;;;;;;;0.90;0.80;;;13.10;97.30;;;;;;4990634;28;20430;-88
2022/12/31 04:53:52;;;;;;;0.97;0.87;;;13.20;97.30;;;;;;4974625;28;20429;-87
2022/12/31 04:56:18;;;;;;;0.90;0.80;;;13.20;97.30;;;;;;4967984;28;20442;-86
2022/12/31 04:58:43;;;;;;;1.00;0.90;;;13.20;97.30;;;;;;4973171;28;20885;-86
2022/12/31 05:01:10;;;;;;;0.90;0.80;;;13.30;97.30;;;;;;4972263;28;20178;-87
2022/12/31 05:03:36;;;;;;;0.90;0.80;;;13.40;97.30;;;;;;4992107;28;20195;-96
2022/12/31 05:06:05;;;;;;;0.97;0.87;;;13.40;97.30;;;;;;4982193;28;20452;-89
2022/12/31 05:08:30;;;;;;;1.30;0.90;;;13.50;97.30;;;;;;4989360;28;20445;-86
2022/12/31 05:10:56;;;;;;;1.00;0.90;;;13.50;97.30;;;;;;4960765;28;20700;-85
2022/12/31 05:13:22;;;;;;;1.00;0.90;;;13.60;97.30;;;;;;4971881;28;20182;-88
2022/12/31 05:15:48;;;;;;;1.00;0.90;;;13.70;97.30;;;;;;4971076;28;20682;-90
2022/12/31 05:18:13;;;;;;;0.80;0.70;;;13.70;97.30;;;;;;4971672;28;20234;-87
2022/12/31 05:20:39;;;;;;;1.00;0.90;;;13.80;97.30;;;;;;4970284;28;20190;-87
2022/12/31 05:23:05;;;;;;;0.90;0.80;;;13.80;97.30;;;;;;4972408;28;20459;-88
2022/12/31 05:25:30;;;;;;;1.30;1.20;;;13.80;97.30;;;;;;4959826;28;20178;-89
2022/12/31 05:27:56;;;;;;;1.00;0.90;;;13.80;97.30;;;;;;4971718;28;20505;-88
2022/12/31 05:30:22;;;;;;;1.10;1.00;;;13.80;97.30;;;;;;4970901;28;20175;-88
2022/12/31 05:32:48;;;;;;;1.30;1.20;;;13.80;97.30;;;;;;4971318;28;20190;-88
2022/12/31 05:35:13;;;;;;;0.90;0.80;;;13.80;97.30;;;;;;4970244;28;20429;-87
2022/12/31 05:37:39;;;;;;;1.10;1.00;;;13.80;97.30;;;;;;4971876;28;20202;-91
2022/12/31 05:40:05;;;;;;;1.00;0.90;;;13.80;97.30;;;;;;4965864;28;20669;-87
2022/12/31 05:42:31;;;;;;;0.70;0.70;;;13.90;97.30;;;;;;4961767;28;20178;-87
2022/12/31 05:44:56;;;;;;;1.10;1.00;;;13.90;97.30;;;;;;4970398;28;20457;-87
2022/12/31 05:47:22;;;;;;;0.97;0.87;;;13.80;97.30;;;;;;4971067;28;21224;-88
2022/12/31 05:49:48;;;;;;;0.90;0.80;;;13.80;97.30;;;;;;4971724;28;20273;-88
2022/12/31 05:52:14;;;;;;;1.00;0.90;;;13.90;97.30;;;;;;4971084;28;20654;-87
2022/12/31 05:54:39;;;;;;;1.00;0.90;;;13.90;97.30;;;;;;4966068;28;20191;-87
2022/12/31 05:57:05;;;;;;;0.70;0.70;;;13.90;97.30;;;;;;4962586;28;20226;-89
2022/12/31 05:59:31;;;;;;;0.90;0.80;;;13.90;97.30;;;;;;4967401;28;20281;-87
2022/12/31 06:01:57;;;;;;;1.37;1.30;;;13.90;97.30;;;;;;4951500;28;20510;-88
2022/12/31 06:04:23;;;;;;;0.80;0.70;;;13.90;97.30;;;;;;4970115;28;20175;-87
2022/12/31 06:06:48;;;;;;;1.00;0.90;;;13.90;97.30;;;;;;4959307;28;20201;-88
2022/12/31 06:09:16;;;;;;;1.03;0.93;;;13.90;97.30;;;;;;4969596;28;20269;-88
2022/12/31 06:11:42;;;;;;;0.90;0.80;;;13.90;97.30;;;;;;4959190;28;20194;-90
2022/12/31 06:14:07;;;;;;;1.00;0.90;;;13.90;97.30;;;;;;4976166;28;20418;-87
2022/12/31 06:16:33;;;;;;;0.87;0.77;;;14.00;97.30;;;;;;4975707;28;20444;-87
2022/12/31 06:18:58;;;;;;;0.77;0.70;;;14.00;97.30;;;;;;4984582;28;20214;-88
2022/12/31 06:21:23;;;;;;;0.77;0.73;;;14.00;97.30;;;;;;4978953;28;20189;-88
2022/12/31 06:23:49;;;;;;;0.73;0.70;;;14.00;97.30;;;;;;4974254;28;20437;-89
2022/12/31 06:26:15;;;;;;;1.10;1.00;;;14.00;97.30;;;;;;4996158;22;20696;-82
2022/12/31 06:28:41;;;;;;;0.70;0.60;;;14.00;97.30;;;;;;4987447;28;20189;-83
2022/12/31 06:31:10;;;;;;;1.00;0.90;;;14.10;97.30;;;;;;4988782;28;20221;-84
2022/12/31 06:33:35;;;;;;;0.90;0.80;;;14.10;97.30;;;;;;5004501;28;20190;-84
2022/12/31 06:36:04;;;;;;;0.90;0.80;;;14.10;97.30;;;;;;5005512;28;20744;-84
2022/12/31 06:38:31;;;;;;;1.00;0.90;;;14.10;97.30;;;;;;5005210;28;20213;-84
2022/12/31 06:40:57;;;;;;;0.90;0.80;;;14.10;97.30;;;;;;4989463;28;20465;-83
2022/12/31 06:43:22;;;;;;;0.93;0.83;;;14.20;97.30;;;;;;4986383;28;20457;-84
2022/12/31 06:45:48;;;;;;;1.03;0.93;;;14.20;97.30;;;;;;4997366;28;20206;-84
2022/12/31 06:48:14;;;;;;;1.33;1.23;;;14.20;97.30;;;;;;4990274;28;20212;-85
2022/12/31 06:50:40;;;;;;;1.00;0.90;;;14.20;97.30;;;;;;4989886;28;20233;-84
2022/12/31 06:53:06;;;;;;;1.10;1.00;;;14.20;97.30;;;;;;4989993;28;20421;-84
2022/12/31 06:55:32;;;;;;;0.90;0.80;;;14.20;97.30;;;;;;4999596;28;20209;-84
2022/12/31 06:57:58;;;;;;;0.83;0.77;;;14.30;97.30;;;;;;4989253;28;20417;-84
2022/12/31 07:00:24;;;;;;;1.00;0.90;;;14.30;97.30;;;;;;4991883;28;20416;-84
2022/12/31 07:03:06;;;;;;;1.00;0.90;;;14.30;97.30;;;;;;4997364;28;20299;-84
2022/12/31 07:05:54;;;;;;;2.60;1.30;;;14.30;97.30;;;;;;4993558;28;20198;-84
2022/12/31 07:08:47;;;;;;;1.10;1.00;;;14.40;97.30;;;;;;4989460;28;20429;-84
2022/12/31 07:11:37;;;;;;;1.00;0.90;;;14.40;97.30;;;;;;4990468;28;20432;-84
2022/12/31 07:14:30;;;;;;;0.97;0.90;;;14.50;97.30;;;;;;5003366;28;20451;-84
2022/12/31 07:17:17;;;;;;;1.50;1.40;;;14.60;97.30;;;;;;5004502;28;20540;-84
2022/12/31 07:19:53;;;;;;;0.90;0.80;;;14.60;97.30;;;;;;5001131;28;20473;-85
2022/12/31 07:22:19;;;;;;;1.20;1.10;;;14.60;97.30;;;;;;4990797;28;20435;-85
2022/12/31 07:24:45;;;;;;;1.10;1.00;;;14.60;97.30;;;;;;5006022;28;20872;-84
2022/12/31 07:27:36;;;;;;;0.90;0.80;;;14.60;97.30;;;;;;5007048;28;21054;-86
2022/12/31 07:30:08;;;;;;;1.90;1.10;;;14.60;97.30;;;;;;4991658;28;20424;-85
2022/12/31 07:32:59;;;;;;;3.60;0.90;;;14.70;97.30;;;;;;5006938;28;20465;-84
2022/12/31 07:35:56;;;;;;;0.93;0.83;;;14.80;97.30;;;;;;4994845;28;20450;-85
2022/12/31 07:38:36;;;;;;;0.97;0.87;;;14.80;97.30;;;;;;4996683;28;20469;-85
2022/12/31 07:41:26;;;;;;;1.00;0.90;;;14.90;97.30;;;;;;4991549;28;20474;-84
2022/12/31 07:43:54;;;;;;;1.10;1.00;;;14.90;97.30;;;;;;5007706;28;20424;-85
2022/12/31 07:46:41;;;;;;;1.00;0.90;;;15.00;97.30;;;;;;5010639;28;20472;-85
2022/12/31 07:49:11;;;;;;;1.00;0.90;;;15.00;97.30;;;;;;5009853;28;20417;-84
2022/12/31 07:51:38;;;;;;;0.90;0.80;;;15.00;97.30;;;;;;5010465;28;20429;-83
2022/12/31 07:54:03;;;;;;;0.90;0.80;;;15.00;97.30;;;;;;5010545;28;20429;-84
2022/12/31 07:56:29;;;;;;;1.00;1.00;;;15.10;97.30;;;;;;5009913;28;20508;-84
2022/12/31 07:59:08;;;;;;;0.93;0.83;;;15.10;97.30;;;;;;4997131;28;20711;-84
2022/12/31 08:01:47;;;;;;;0.90;0.80;;;15.20;97.30;;;;;;4990825;28;20178;-85
2022/12/31 08:04:35;;;;;;;0.90;0.80;;;15.20;97.30;;;;;;4996679;28;20417;-84
2022/12/31 08:07:07;;;;;;;1.00;0.90;;;15.20;97.30;;;;;;5009486;28;20429;-84
2022/12/31 08:09:46;;;;;;;0.90;0.80;;;15.20;97.30;;;;;;4994874;28;20627;-84
2022/12/31 08:12:12;;;;;;;0.70;0.67;;;15.30;97.30;;;;;;4995691;28;20433;-83
2022/12/31 08:14:44;;;;;;;1.00;0.90;;;15.30;97.30;;;;;;4992645;28;20781;-84
2022/12/31 08:17:12;;;;;;;1.00;0.90;;;15.30;97.30;;;;;;4991946;28;20424;-85
2022/12/31 08:19:38;;;;;;;0.90;0.80;;;15.30;97.30;;;;;;4992386;28;20517;-83
2022/12/31 08:22:43;;;;;;;0.90;0.80;;;15.30;97.30;;;;;;5007163;28;20421;-84
2022/12/31 08:25:36;;;;;;;1.20;1.10;;;15.30;97.30;;;;;;4962695;28;20975;-85
2022/12/31 08:28:31;;;;;;;1.17;1.07;;;15.30;97.30;;;;;;5009089;28;20426;-84
2022/12/31 08:31:09;;;;;;;1.00;0.90;;;15.30;97.30;;;;;;4960831;28;20450;-84
2022/12/31 08:33:47;;;;;;;1.00;0.90;;;15.40;97.30;;;;;;5003980;28;20423;-84
2022/12/31 08:36:31;;;;;;;1.17;1.10;;;15.40;97.30;;;;;;4992156;28;20437;-84
2022/12/31 08:39:20;;;;;;;1.30;1.20;;;15.50;97.30;;;;;;5008826;28;20464;-82
2022/12/31 08:41:50;;;;;;;0.70;0.70;;;15.50;97.30;;;;;;5007232;28;20453;-83
2022/12/31 08:44:27;;;;;;;1.00;0.90;;;15.50;97.30;;;;;;4989656;28;20410;-84
2022/12/31 08:47:05;;;;;;;1.20;1.10;;;15.50;97.30;;;;;;4987102;28;21029;-84
2022/12/31 08:49:34;;;;;;;0.90;0.80;;;15.60;97.30;;;;;;4982415;28;20422;-83
2022/12/31 08:52:00;;;;;;;0.90;0.80;;;15.60;97.30;;;;;;5002285;28;20795;-84
2022/12/31 08:54:26;;;;;;;1.57;1.17;;;15.60;97.30;;;;;;5007258;28;20656;-84
2022/12/31 08:57:10;;;;;;;1.00;0.90;;;15.60;97.30;;;;;;4991700;28;20452;-83
2022/12/31 08:59:55;;;;;;;1.13;1.07;;;15.70;97.30;;;;;;5000952;28;20448;-84
2022/12/31 09:02:58;;;;;;;1.67;1.07;;;15.70;97.30;;;;;;4990912;28;20429;-83
2022/12/31 09:05:52;;;;;;;0.97;0.87;;;15.70;97.30;;;;;;5006888;28;20424;-84
2022/12/31 09:08:40;;;;;;;0.90;0.80;;;15.70;97.30;;;;;;4987254;28;20792;-83
2022/12/31 09:11:33;;;;;;;0.90;0.80;;;15.70;97.30;;;;;;4987925;28;20475;-84
2022/12/31 09:14:07;;;;;;;1.30;1.20;;;15.80;97.30;;;;;;4988117;28;20429;-84
2022/12/31 09:16:38;;;;;;;1.00;0.90;;;15.80;97.30;;;;;;4987658;28;20445;-82
2022/12/31 09:19:03;;;;;;;1.57;0.93;;;15.90;97.30;;;;;;4988006;28;20515;-83
2022/12/31 09:21:31;;;;;;;1.20;1.10;;;16.00;97.30;;;;;;4986854;28;20413;-84
2022/12/31 09:23:57;;;;;;;1.10;1.00;;;16.00;97.30;;;;;;4988325;28;20649;-83
2022/12/31 09:26:38;;;;;;;1.17;1.10;;;16.00;97.30;;;;;;5004444;28;20555;-83
2022/12/31 09:29:43;;;;;;;0.90;0.80;;;16.10;97.30;;;;;;4987247;28;20436;-84
2022/12/31 09:32:20;;;;;;;1.10;1.00;;;16.20;97.30;;;;;;4989363;28;20420;-84
2022/12/31 09:35:29;;;;;;;0.90;0.80;;;16.20;97.30;;;;;;4989969;28;20443;-84
2022/12/31 09:38:03;;;;;;;1.10;1.00;;;16.30;97.30;;;;;;4968874;28;20455;-85
2022/12/31 09:41:04;;;;;;;0.70;0.70;;;16.40;97.30;;;;;;4990767;28;20450;-84
2022/12/31 09:43:59;;;;;;;1.00;0.90;;;16.40;97.30;;;;;;5000384;28;20425;-84
2022/12/31 09:46:59;;;;;;;7.53;1.37;;;16.50;97.30;;;;;;4985212;28;20541;-84
2022/12/31 09:49:43;;;;;;;0.73;0.70;;;16.60;97.30;;;;;;4989781;28;20451;-85
2022/12/31 09:52:30;;;;;;;1.20;1.10;;;16.60;97.30;;;;;;5006242;28;20421;-84
2022/12/31 09:55:10;;;;;;;1.93;0.90;;;16.70;97.30;;;;;;5003657;28;20944;-84
2022/12/31 09:58:08;;;;;;;0.90;0.80;;;16.80;97.30;;;;;;4991942;28;20435;-84
2022/12/31 10:00:54;;;;;;;0.93;0.90;;;16.80;97.30;;;;;;5000840;28;20436;-85
2022/12/31 10:04:05;;;;;;;0.97;0.87;;;16.80;97.30;;;;;;5001791;28;20449;-85
2022/12/31 10:07:00;;;;;;;1.00;0.90;;;16.90;97.30;;;;;;4961682;28;20440;-84
2022/12/31 10:09:47;;;;;;;0.90;0.80;;;17.00;97.30;;;;;;4989014;28;20431;-85
2022/12/31 10:12:21;;;;;;;1.10;1.00;;;17.00;97.30;;;;;;4993836;28;20429;-85
2022/12/31 10:15:05;;;;;;;0.90;0.80;;;17.10;97.30;;;;;;4994697;28;20459;-83
2022/12/31 10:17:58;;;;;;;0.90;0.90;;;17.20;97.30;;;;;;5003666;28;20425;-84
2022/12/31 10:20:52;;;;;;;1.10;1.03;;;17.20;97.30;;;;;;5011104;28;20424;-84
2022/12/31 10:23:37;;;;;;;1.10;1.00;;;17.30;97.30;;;;;;4992117;28;21079;-85
2022/12/31 10:26:21;;;;;;;1.57;0.90;;;17.40;97.30;;;;;;4990471;28;20933;-83
2022/12/31 10:28:58;;;;;;;1.03;1.00;;;17.40;97.30;;;;;;4984223;28;20979;-86
2022/12/31 10:31:53;;;;;;;0.90;0.80;;;17.40;97.30;;;;;;4990853;28;20436;-83
2022/12/31 10:34:30;;;;;;;2.73;1.90;;;17.50;97.30;;;;;;4987191;28;20870;-83
2022/12/31 10:37:13;;;;;;;2.10;1.17;;;17.50;97.30;;;;;;4989277;28;20456;-83
2022/12/31 10:39:58;;;;;;;1.20;1.03;;;17.40;97.30;;;;;;4987090;28;20539;-83
2022/12/31 10:42:57;;;;;;;1.00;0.90;;;17.40;97.30;;;;;;5002667;28;20457;-84
2022/12/31 10:45:45;;;;;;;0.97;0.87;;;17.40;97.30;;;;;;4987484;28;20453;-82
2022/12/31 10:48:35;;;;;;;1.13;1.03;;;17.60;97.30;;;;;;4985135;28;20421;-83
2022/12/31 10:51:17;;;;;;;0.90;0.80;;;17.70;97.30;;;;;;5002487;28;20428;-84
2022/12/31 10:54:21;;;;;;;1.20;1.10;;;17.80;97.30;;;;;;4991440;28;20433;-84
2022/12/31 10:57:25;;;;;;;1.27;1.20;;;17.90;97.30;;;;;;4988556;28;20532;-86
2022/12/31 11:00:18;;;;;;;0.90;0.80;;;17.80;97.30;;;;;;4981709;28;21014;-84
2022/12/31 11:03:23;;;;;;;1.67;1.57;;;17.70;97.30;;;;;;4986408;28;20431;-85
2022/12/31 11:06:10;;;;;;;1.17;1.07;;;17.70;97.30;;;;;;5001768;28;20429;-85
2022/12/31 11:09:11;;;;;;;1.00;0.93;;;17.70;97.30;;;;;;4990215;28;20465;-85
2022/12/31 11:11:57;;;;;;;0.97;0.90;;;17.70;97.30;;;;;;4986940;28;20428;-84
2022/12/31 11:14:35;;;;;;;1.17;1.00;;;17.70;97.30;;;;;;4989933;28;20420;-84
2022/12/31 11:17:18;;;;;;;1.00;0.90;;;17.70;97.30;;;;;;4992115;28;20441;-85
2022/12/31 11:20:38;;;;;;;1.30;1.20;;;17.60;97.30;;;;;;4990883;28;20465;-83
2022/12/31 11:23:21;;;;;;;2.00;1.90;;;17.50;97.30;;;;;;4966767;28;20426;-84
2022/12/31 11:25:54;;;;;;;1.63;1.00;;;17.40;97.30;;;;;;4986007;28;20473;-84
2022/12/31 11:28:43;;;;;;;1.10;1.00;;;17.30;97.30;;;;;;4994423;28;20807;-84
2022/12/31 11:31:27;;;;;;;0.90;0.80;;;17.20;97.30;;;;;;4994014;28;20523;-83
2022/12/31 11:34:18;;;;;;;1.10;1.00;;;17.20;97.30;;;;;;5010476;28;20425;-84
2022/12/31 11:36:49;;;;;;;3.00;1.10;;;17.10;97.30;;;;;;4990440;28;20485;-83
2022/12/31 11:39:34;;;;;;;0.97;0.87;;;17.20;97.30;;;;;;5003811;28;20453;-84
2022/12/31 11:42:39;;;;;;;1.00;0.90;;;17.20;97.30;;;;;;4993078;28;20409;-84
2022/12/31 11:45:32;;;;;;;1.20;1.20;;;17.20;97.30;;;;;;4991882;28;20578;-84
2022/12/31 11:48:03;;;;;;;1.40;1.30;;;17.20;97.30;;;;;;4993101;28;20428;-83
2022/12/31 11:50:51;;;;;;;2.30;1.60;;;17.30;97.30;;;;;;4992793;28;20578;-84
2022/12/31 11:53:45;;;;;;;1.50;1.03;;;17.30;97.30;;;;;;4994585;28;20411;-83
2022/12/31 11:56:19;;;;;;;1.20;1.10;;;17.40;97.30;;;;;;4999437;28;20948;-83
2022/12/31 11:58:49;;;;;;;1.00;0.90;;;17.50;97.30;;;;;;4993650;28;20464;-84
2022/12/31 12:01:47;;;;;;;1.17;1.10;;;17.40;97.30;;;;;;5009177;28;20940;-83
2022/12/31 12:04:13;;;;;;;1.10;1.00;;;17.40;97.30;;;;;;4986859;28;20420;-83
2022/12/31 12:06:39;;;;;;;1.30;1.20;;;17.40;97.30;;;;;;4994250;28;20448;-84
2022/12/31 12:09:12;;;;;;;1.77;1.40;;;17.30;97.30;;;;;;4993411;28;20197;-83
2022/12/31 12:11:39;;;;;;;0.97;0.87;;;17.30;97.30;;;;;;4994133;28;20507;-84
2022/12/31 12:14:31;;;;;;;1.20;1.10;;;17.30;97.30;;;;;;5010407;28;20421;-84
2022/12/31 12:16:58;;;;;;;1.23;1.13;;;17.40;97.30;;;;;;4993377;28;20935;-84
2022/12/31 12:19:26;;;;;;;1.10;1.00;;;17.40;97.30;;;;;;4993917;28;20843;-83
2022/12/31 12:21:53;;;;;;;1.37;1.30;;;17.50;97.30;;;;;;4998105;28;20424;-84
2022/12/31 12:24:28;;;;;;;1.10;1.10;;;17.50;97.30;;;;;;4992869;28;20428;-84
2022/12/31 12:29:30;;;;;;;1.67;1.57;;;17.60;97.30;;;;;;4983520;28;20990;-87
2022/12/31 12:32:02;;;;;;;2.13;1.47;;;17.60;97.30;;;;;;4976381;28;20417;-85
2022/12/31 12:34:29;;;;;;;1.40;1.30;;;17.70;97.30;;;;;;4982390;28;20413;-84
2022/12/31 12:36:55;;;;;;;1.10;1.00;;;17.60;97.30;;;;;;5004777;28;20783;-88
2022/12/31 12:39:23;;;;;;;1.03;0.93;;;17.70;97.30;;;;;;4991570;28;20463;-87
2022/12/31 12:42:00;;;;;;;0.80;0.70;;;17.70;97.30;;;;;;4991757;28;20206;-88
2022/12/31 12:44:25;;;;;;;1.37;0.90;;;17.70;97.30;;;;;;4980421;28;20417;-89
2022/12/31 12:46:52;;;;;;;1.47;1.37;;;17.70;97.30;;;;;;4998668;28;20418;-91
2022/12/31 12:49:25;;;;;;;1.00;0.90;;;17.80;97.20;;;;;;4987247;28;20232;-88
2022/12/31 12:52:35;;;;;;;1.43;1.30;;;17.80;97.10;;;;;;4980443;28;20433;-86
2022/12/31 12:55:19;;;;;;;1.20;1.10;;;17.80;97.00;;;;;;4978226;28;20505;-88
2022/12/31 12:58:23;;;;;;;0.90;0.80;;;17.80;97.00;;;;;;4995753;28;20441;-89
2022/12/31 13:01:07;;;;;;;1.37;1.30;;;17.80;97.00;;;;;;5004484;28;20883;-91
2022/12/31 13:04:07;;;;;;;1.00;0.90;;;17.80;96.90;;;;;;4992747;28;20437;-87
2022/12/31 13:06:57;;;;;;;0.93;0.90;;;17.80;96.90;;;;;;5016865;28;20431;-89
2022/12/31 13:09:52;;;;;;;1.57;1.03;;;17.80;96.70;;;;;;5005260;28;20413;-92
2022/12/31 13:12:41;;;;;;;1.23;1.13;;;17.80;96.80;;;;;;4987906;28;20445;-90
2022/12/31 13:15:21;;;;;;;0.90;0.80;;;17.80;96.80;;;;;;4978771;28;20511;-89
2022/12/31 13:18:31;;;;;;;1.00;0.90;;;17.80;96.80;;;;;;5000454;28;20444;-91
2022/12/31 13:21:16;;;;;;;1.33;1.23;;;17.80;97.00;;;;;;5004580;28;20424;-88
2022/12/31 13:23:48;;;;;;;1.53;1.50;;;17.80;96.70;;;;;;4997163;28;20413;-91
2022/12/31 13:26:27;;;;;;;0.73;0.70;;;17.80;96.70;;;;;;4988141;28;20414;-88
2022/12/31 13:28:54;;;;;;;1.33;1.03;;;17.80;96.80;;;;;;4983476;28;20559;-87
2022/12/31 13:31:30;;;;;;;7.20;1.47;;;17.80;96.90;;;;;;4992018;28;20432;-89
2022/12/31 13:34:13;;;;;;;0.90;0.80;;;17.80;96.80;;;;;;5006420;28;20432;-89
2022/12/31 13:36:53;;;;;;;1.43;0.90;;;17.70;97.00;;;;;;4990621;28;20508;-88
2022/12/31 13:39:30;;;;;;;4.13;1.40;;;17.70;97.00;;;;;;4991139;28;20548;-89
2022/12/31 13:42:10;;;;;;;1.47;1.27;;;17.70;97.10;;;;;;5000771;28;20408;-87